Time;durP1;ratioP1;P1;durP2;ratioP2;P2;SDS_P1;SDS_P2;PMS_P1;PMS_P2;Temp;Humidity;BMP_temperature;BMP_pressure;BME280_temperature;BME280_humidity;BME280_pressure;Samples;Min_cycle;Max_cycle;Signal;HPM_P1;HPM_P2
2023/06/01 00:00:20;;;;;;;;;;;;;;;5.76;100.00;98837.75;4878137;29;19956;-79
2023/06/01 00:02:49;;;;;;;;;;;;;;;5.76;100.00;98839.63;4877971;29;19939;-78
2023/06/01 00:05:16;;;;;;;;;;;;;;;5.77;100.00;98833.22;4878599;29;20298;-78
2023/06/01 00:07:44;;;;;;;;;;;;;;;5.82;100.00;98833.38;4878176;29;19928;-78
2023/06/01 00:10:11;;;;;;;;;;;;;;;5.85;100.00;98832.97;4877943;29;19975;-78
2023/06/01 00:12:38;;;;;;;;;;;;;;;5.85;100.00;98839.16;4877804;29;19928;-78
2023/06/01 00:15:09;;;;;;;;;;;;;;;5.90;100.00;98822.44;4876810;29;19927;-78
2023/06/01 00:17:38;;;;;;;;;;;;;;;5.95;100.00;98832.50;4877610;29;19928;-78
2023/06/01 00:20:10;;;;;;;;;;;;;;;5.99;100.00;98823.81;4877922;29;20359;-78
2023/06/01 00:22:38;;;;;;;;;;;;;;;5.93;99.95;98830.03;4877642;29;19987;-78
2023/06/01 00:25:06;;;;;;;;;;;;;;;5.86;99.65;98822.03;4877951;29;19976;-78
2023/06/01 00:27:33;;;;;;;;;;;;;;;5.80;99.73;98835.50;4877621;29;20030;-77
2023/06/01 00:30:01;;;;;;;;;;;;;;;5.78;99.93;98829.53;4876094;29;20019;-77
2023/06/01 00:32:29;;;;;;;;;;;;;;;5.82;100.00;98822.69;4876541;29;20035;-78
2023/06/01 00:34:56;;;;;;;;;;;;;;;5.92;99.52;98823.00;4876394;29;20100;-78
2023/06/01 00:37:22;;;;;;;;;;;;;;;6.08;98.49;98821.69;4876215;29;19970;-78
2023/06/01 00:39:52;;;;;;;;;;;;;;;6.23;96.58;98818.66;4877909;29;19927;-78
2023/06/01 00:42:23;;;;;;;;;;;;;;;6.27;95.20;98819.84;4876344;29;19934;-78
2023/06/01 00:44:50;;;;;;;;;;;;;;;6.24;94.77;98822.97;4876468;29;19927;-78
2023/06/01 00:47:17;;;;;;;;;;;;;;;6.12;94.32;98824.72;4877568;29;20022;-78
2023/06/01 00:49:45;;;;;;;;;;;;;;;5.97;94.81;98817.03;4877709;29;19945;-77
2023/06/01 00:52:14;;;;;;;;;;;;;;;6.03;94.65;98825.03;4877686;29;19934;-78
2023/06/01 00:54:43;;;;;;;;;;;;;;;6.34;92.40;98825.16;4861687;29;19943;-78
2023/06/01 00:57:10;;;;;;;;;;;;;;;6.32;91.58;98822.69;4876239;29;19935;-78
2023/06/01 00:59:37;;;;;;;;;;;;;;;6.28;90.96;98816.16;4876775;29;19952;-79
2023/06/01 01:02:04;;;;;;;;;;;;;;;6.18;91.13;98816.66;4878601;29;19966;-77
2023/06/01 01:04:32;;;;;;;;;;;;;;;6.10;91.54;98818.78;4878178;29;19976;-79
2023/06/01 01:07:00;;;;;;;;;;;;;;;6.02;91.88;98818.00;4878413;29;19927;-79
2023/06/01 01:09:28;;;;;;;;;;;;;;;5.92;92.25;98814.97;4877322;29;19928;-79
2023/06/01 01:12:00;;;;;;;;;;;;;;;5.86;92.61;98813.19;4877845;29;20284;-77
2023/06/01 01:14:33;;;;;;;;;;;;;;;5.86;92.79;98811.31;4875686;29;19934;-79
2023/06/01 01:17:24;;;;;;;;;;;;;;;5.86;92.82;98805.97;4876056;29;19935;-77
2023/06/01 01:20:05;;;;;;;;;;;;;;;5.85;92.94;98800.84;4860062;29;20458;-78
2023/06/01 01:22:38;;;;;;;;;;;;;;;5.80;93.16;98806.03;4828933;29;19927;-78
2023/06/01 01:25:07;;;;;;;;;;;;;;;5.82;93.08;98806.59;4875840;29;19976;-78
2023/06/01 01:27:38;;;;;;;;;;;;;;;5.84;92.88;98810.72;4875915;29;19928;-77
2023/06/01 01:30:05;;;;;;;;;;;;;;;5.80;92.72;98806.84;4875774;29;19928;-78
2023/06/01 01:32:35;;;;;;;;;;;;;;;5.73;93.07;98807.94;4860399;29;19928;-78
2023/06/01 01:35:02;;;;;;;;;;;;;;;5.71;93.14;98799.28;4875748;29;19931;-78
2023/06/01 01:37:35;;;;;;;;;;;;;;;5.71;93.28;98805.47;4875974;29;19931;-78
2023/06/01 01:40:03;;;;;;;;;;;;;;;5.77;92.99;98799.25;4876871;29;19931;-77
2023/06/01 01:42:30;;;;;;;;;;;;;;;5.86;92.29;98797.13;4879607;29;20033;-77
2023/06/01 01:44:57;;;;;;;;;;;;;;;5.89;91.73;98798.53;4864275;29;19931;-78
2023/06/01 01:47:41;;;;;;;;;;;;;;;5.87;91.67;98801.41;4879126;29;19928;-79
2023/06/01 01:50:13;;;;;;;;;;;;;;;5.83;91.41;98800.22;4879374;29;19935;-78
2023/06/01 01:52:41;;;;;;;;;;;;;;;5.83;91.60;98801.03;4863807;29;19959;-80
2023/06/01 01:55:09;;;;;;;;;;;;;;;5.82;91.76;98798.56;4879278;29;19928;-79
2023/06/01 01:57:36;;;;;;;;;;;;;;;5.88;91.91;98797.72;4879136;29;19999;-79
2023/06/01 02:00:06;;;;;;;;;;;;;;;5.92;91.70;98809.63;4879414;29;19939;-79
2023/06/01 02:02:41;;;;;;;;;;;;;;;5.91;91.49;98802.63;4864944;29;20416;-79
2023/06/01 02:05:09;;;;;;;;;;;;;;;5.89;91.53;98802.03;4880044;29;19927;-79
2023/06/01 02:07:36;;;;;;;;;;;;;;;5.91;91.47;98805.31;4879176;29;19927;-77
2023/06/01 02:10:05;;;;;;;;;;;;;;;5.93;91.41;98797.88;4879606;29;19928;-77
2023/06/01 02:12:32;;;;;;;;;;;;;;;5.94;91.30;98806.75;4879139;29;19934;-78
2023/06/01 02:14:59;;;;;;;;;;;;;;;5.94;91.33;98810.25;4880173;29;19935;-78
2023/06/01 02:17:27;;;;;;;;;;;;;;;5.95;91.42;98803.03;4863559;29;20396;-78
2023/06/01 02:19:55;;;;;;;;;;;;;;;5.96;91.50;98810.84;4878873;29;19983;-78
2023/06/01 02:22:22;;;;;;;;;;;;;;;5.96;91.70;98810.03;4878739;29;19935;-77
2023/06/01 02:24:51;;;;;;;;;;;;;;;5.97;91.76;98809.81;4879947;29;19928;-78
2023/06/01 02:27:18;;;;;;;;;;;;;;;6.03;91.98;98819.66;4878781;29;19976;-78
2023/06/01 02:29:48;;;;;;;;;;;;;;;6.12;91.51;98816.69;4863790;29;19934;-78
2023/06/01 02:32:15;;;;;;;;;;;;;;;6.21;90.79;98826.91;4879228;29;19973;-78
2023/06/01 02:34:42;;;;;;;;;;;;;;;6.35;89.36;98830.28;4880263;29;20058;-77
2023/06/01 02:37:09;;;;;;;;;;;;;;;6.44;88.47;98831.63;4881025;29;19928;-79
2023/06/01 02:39:36;;;;;;;;;;;;;;;6.47;88.17;98820.47;4878894;29;19928;-77
2023/06/01 02:42:05;;;;;;;;;;;;;;;6.53;87.83;98823.31;4879339;29;19928;-78
2023/06/01 02:44:32;;;;;;;;;;;;;;;6.59;87.34;98825.09;4879929;29;20383;-79
2023/06/01 02:46:58;;;;;;;;;;;;;;;6.64;87.06;98827.94;4863362;29;20378;-78
2023/06/01 02:49:25;;;;;;;;;;;;;;;6.67;87.10;98830.16;4862867;29;19931;-78
2023/06/01 02:51:52;;;;;;;;;;;;;;;6.72;86.85;98833.00;4877960;29;19963;-78
2023/06/01 02:54:23;;;;;;;;;;;;;;;6.78;86.33;98837.47;4877215;29;19931;-78
2023/06/01 02:56:51;;;;;;;;;;;;;;;6.83;85.75;98839.47;4878382;29;20395;-78
2023/06/01 02:59:41;;;;;;;;;;;;;;;6.88;85.71;98836.94;4873938;29;20395;-77
2023/06/01 03:02:08;;;;;;;;;;;;;;;6.94;85.46;98838.75;4862655;29;20042;-76
2023/06/01 03:04:35;;;;;;;;;;;;;;;6.99;85.57;98832.69;4862407;29;20023;-78
2023/06/01 03:07:02;;;;;;;;;;;;;;;7.07;85.00;98841.25;4879751;29;19931;-79
2023/06/01 03:09:40;;;;;;;;;;;;;;;7.15;84.71;98840.94;4878310;29;19935;-77
2023/06/01 03:12:39;;;;;;;;;;;;;;;7.25;84.38;98848.44;4879161;29;19928;-78
2023/06/01 03:15:06;;;;;;;;;;;;;;;7.32;84.12;98838.44;4879449;29;19928;-79
2023/06/01 03:17:34;;;;;;;;;;;;;;;7.39;83.41;98841.03;4877762;29;20350;-77
2023/06/01 03:20:04;;;;;;;;;;;;;;;7.49;82.82;98837.78;4878050;29;19928;-78
2023/06/01 03:22:30;;;;;;;;;;;;;;;7.56;82.53;98825.09;4877636;29;20395;-78
2023/06/01 03:24:57;;;;;;;;;;;;;;;7.66;82.10;98836.09;4877910;29;20310;-80
2023/06/01 03:27:29;;;;;;;;;;;;;;;7.74;81.66;98841.13;4863277;29;19934;-79
2023/06/01 03:29:56;;;;;;;;;;;;;;;7.82;81.62;98840.81;4878437;29;20442;-78
2023/06/01 03:32:24;;;;;;;;;;;;;;;7.86;81.57;98838.50;4876579;29;19928;-77
2023/06/01 03:34:53;;;;;;;;;;;;;;;7.84;81.58;98837.91;4874711;29;19927;-78
2023/06/01 03:37:20;;;;;;;;;;;;;;;7.84;81.75;98839.78;4876593;29;20038;-77
2023/06/01 03:39:48;;;;;;;;;;;;;;;7.87;82.06;98842.00;4876547;29;19976;-77
2023/06/01 03:42:16;;;;;;;;;;;;;;;7.97;82.00;98845.75;4876906;29;19935;-78
2023/06/01 03:44:42;;;;;;;;;;;;;;;8.05;81.71;98844.56;4877217;29;19927;-78
2023/06/01 03:47:09;;;;;;;;;;;;;;;8.13;81.97;98851.50;4877325;29;20283;-78
2023/06/01 03:49:36;;;;;;;;;;;;;;;8.15;82.01;98839.47;4878659;29;19927;-78
2023/06/01 03:52:07;;;;;;;;;;;;;;;8.10;82.14;98844.72;4857644;29;19928;-78
2023/06/01 03:54:36;;;;;;;;;;;;;;;8.21;82.09;98838.53;4868779;29;20015;-78
2023/06/01 03:57:12;;;;;;;;;;;;;;;8.35;81.03;98841.78;4868657;29;20035;-77
2023/06/01 03:59:39;;;;;;;;;;;;;;;8.45;80.66;98839.38;4876821;29;19963;-78
2023/06/01 04:02:09;;;;;;;;;;;;;;;8.57;80.09;98844.75;4866148;29;19927;-78
2023/06/01 04:04:36;;;;;;;;;;;;;;;8.64;78.88;98837.38;4851377;29;19927;-78
2023/06/01 04:07:03;;;;;;;;;;;;;;;8.72;78.42;98833.50;4872057;29;19931;-77
2023/06/01 04:09:31;;;;;;;;;;;;;;;8.84;78.30;98833.50;4858112;29;20027;-77
2023/06/01 04:11:58;;;;;;;;;;;;;;;8.93;78.06;98832.06;4848147;29;19928;-77
2023/06/01 04:14:25;;;;;;;;;;;;;;;9.04;77.82;98831.22;4871265;29;19956;-77
2023/06/01 04:16:53;;;;;;;;;;;;;;;9.16;77.48;98830.34;4867066;29;20027;-78
2023/06/01 04:19:21;;;;;;;;;;;;;;;9.30;76.91;98826.31;4866657;29;19928;-79
2023/06/01 04:21:53;;;;;;;;;;;;;;;9.42;76.46;98829.78;4859481;29;19944;-78
2023/06/01 04:24:20;;;;;;;;;;;;;;;9.57;76.28;98833.81;4873644;29;19934;-79
2023/06/01 04:26:50;;;;;;;;;;;;;;;9.69;75.78;98834.56;4863123;29;19987;-77
2023/06/01 04:29:19;;;;;;;;;;;;;;;9.74;74.77;98822.00;4863278;29;19971;-78
2023/06/01 04:31:54;;;;;;;;;;;;;;;9.90;75.17;98831.19;4873496;29;19934;-79
2023/06/01 04:34:32;;;;;;;;;;;;;;;10.03;74.83;98819.25;4842272;29;10000037;-79
2023/06/01 04:37:00;;;;;;;;;;;;;;;10.18;74.61;98821.38;4873325;29;20071;-78
2023/06/01 04:39:28;;;;;;;;;;;;;;;10.37;74.49;98825.44;4872902;29;19934;-79
2023/06/01 04:41:58;;;;;;;;;;;;;;;10.49;73.95;98819.16;4870397;29;19928;-79
2023/06/01 04:44:25;;;;;;;;;;;;;;;10.62;73.72;98816.09;4868994;29;19935;-79
2023/06/01 04:46:54;;;;;;;;;;;;;;;10.66;72.88;98825.34;4852261;29;20283;-80
2023/06/01 04:49:22;;;;;;;;;;;;;;;10.76;72.35;98819.22;4865258;29;20458;-79
2023/06/01 04:51:51;;;;;;;;;;;;;;;10.88;71.74;98821.81;4870877;29;20391;-82
2023/06/01 04:54:18;;;;;;;;;;;;;;;10.99;71.93;98815.50;4839179;29;19931;-79
2023/06/01 04:56:45;;;;;;;;;;;;;;;11.10;71.89;98811.03;4867884;29;19987;-78
2023/06/01 04:59:12;;;;;;;;;;;;;;;11.18;71.22;98813.28;4867368;29;19934;-79
2023/06/01 05:01:43;;;;;;;;;;;;;;;11.23;71.30;98816.03;4871217;29;19934;-80
2023/06/01 05:04:15;;;;;;;;;;;;;;;11.34;71.33;98815.06;4869533;29;19928;-80
2023/06/01 05:06:43;;;;;;;;;;;;;;;11.40;71.13;98821.34;4865665;29;20459;-80
2023/06/01 05:09:13;;;;;;;;;;;;;;;11.54;71.38;98819.84;4872489;29;20489;-80
2023/06/01 05:11:42;;;;;;;;;;;;;;;11.65;71.09;98812.69;4875735;29;20034;-80
2023/06/01 05:14:11;;;;;;;;;;;;;;;11.77;70.90;98809.78;4877148;29;19928;-80
2023/06/01 05:16:39;;;;;;;;;;;;;;;11.86;71.01;98808.25;4875453;29;20316;-80
2023/06/01 05:19:08;;;;;;;;;;;;;;;11.98;70.17;98805.44;4876847;29;19931;-80
2023/06/01 05:21:36;;;;;;;;;;;;;;;12.06;69.72;98800.34;4860323;29;19927;-80
2023/06/01 05:24:05;;;;;;;;;;;;;;;12.21;68.98;98809.66;4875221;29;19935;-79
2023/06/01 05:26:32;;;;;;;;;;;;;;;12.34;68.58;98806.50;4873994;29;19974;-80
2023/06/01 05:28:59;;;;;;;;;;;;;;;12.46;67.95;98800.91;4864424;29;19939;-80
2023/06/01 05:31:27;;;;;;;;;;;;;;;12.60;67.86;98801.22;4861413;29;19971;-81
2023/06/01 05:33:58;;;;;;;;;;;;;;;12.74;67.81;98803.19;4856746;29;19928;-80
2023/06/01 05:36:43;;;;;;;;;;;;;;;12.97;67.19;98803.84;4855452;29;20286;-80
2023/06/01 05:39:13;;;;;;;;;;;;;;;13.16;66.99;98804.97;4848214;29;20411;-80
2023/06/01 05:41:41;;;;;;;;;;;;;;;13.34;66.46;98798.31;4869801;29;20018;-80
2023/06/01 05:44:09;;;;;;;;;;;;;;;13.48;64.37;98808.63;4865286;29;19984;-80
2023/06/01 05:46:36;;;;;;;;;;;;;;;13.55;62.55;98806.47;4864200;29;19934;-80
2023/06/01 05:49:03;;;;;;;;;;;;;;;13.58;61.03;98800.50;4872653;29;20054;-80
2023/06/01 05:51:36;;;;;;;;;;;;;;;13.65;60.45;98812.72;4871801;29;19931;-79
2023/06/01 05:54:27;;;;;;;;;;;;;;;13.72;59.87;98807.03;4866008;29;20791;-80
2023/06/01 05:56:55;;;;;;;;;;;;;;;13.87;59.49;98798.91;4854276;29;19935;-81
2023/06/01 05:59:25;;;;;;;;;;;;;;;13.95;59.21;98815.72;4853533;29;19928;-80
2023/06/01 06:02:12;;;;;;;;;;;;;;;14.02;58.35;98803.50;4866188;29;19927;-80
2023/06/01 06:04:39;;;;;;;;;;;;;;;14.18;57.88;98801.63;4864259;29;19931;-81
2023/06/01 06:07:07;;;;;;;;;;;;;;;14.26;56.82;98805.69;4870210;29;19955;-80
2023/06/01 06:09:34;;;;;;;;;;;;;;;14.37;57.00;98803.75;4866990;29;20314;-82
2023/06/01 06:12:01;;;;;;;;;;;;;;;14.48;56.19;98802.63;4872286;29;19928;-82
2023/06/01 06:14:28;;;;;;;;;;;;;;;14.55;56.36;98792.34;4871503;29;19927;-81
2023/06/01 06:16:55;;;;;;;;;;;;;;;14.81;57.17;98781.38;4872231;29;19927;-80
2023/06/01 06:19:22;;;;;;;;;;;;;;;15.01;56.92;98783.22;4872713;29;19928;-79
2023/06/01 06:21:50;;;;;;;;;;;;;;;15.04;55.16;98797.06;4873496;29;19932;-78
2023/06/01 06:24:17;;;;;;;;;;;;;;;15.03;55.00;98784.56;4869050;29;19928;-79
2023/06/01 06:26:44;;;;;;;;;;;;;;;15.22;55.23;98784.75;4864020;29;20332;-80
2023/06/01 06:29:14;;;;;;;;;;;;;;;15.36;55.15;98793.09;4855063;29;19938;-79
2023/06/01 06:31:42;;;;;;;;;;;;;;;15.41;54.29;98789.53;4864644;29;20028;-81
2023/06/01 06:34:35;;;;;;;;;;;;;;;15.47;53.28;98789.22;4873354;29;19939;-80
2023/06/01 06:37:03;;;;;;;;;;;;;;;15.54;52.33;98797.06;4870172;29;19928;-81
2023/06/01 06:39:30;;;;;;;;;;;;;;;15.56;52.02;98795.69;4875705;29;19979;-81
2023/06/01 06:41:57;;;;;;;;;;;;;;;15.57;50.80;98788.31;4875881;29;19928;-80
2023/06/01 06:44:24;;;;;;;;;;;;;;;15.54;51.54;98778.00;4876144;29;19928;-80
2023/06/01 06:46:51;;;;;;;;;;;;;;;15.77;52.10;98781.97;4874349;29;19931;-80
2023/06/01 06:49:18;;;;;;;;;;;;;;;15.89;51.51;98782.41;4873950;29;20455;-79
2023/06/01 06:51:53;;;;;;;;;;;;;;;16.06;51.09;98773.84;4876276;29;19928;-79
2023/06/01 06:54:21;;;;;;;;;;;;;;;16.18;50.65;98768.81;4874456;29;20054;-80
2023/06/01 06:56:49;;;;;;;;;;;;;;;16.23;49.66;98770.69;4875830;29;19952;-80
2023/06/01 06:59:39;;;;;;;;;;;;;;;16.33;49.22;98761.59;4873695;29;20026;-80
2023/06/01 07:02:08;;;;;;;;;;;;;;;16.37;48.75;98757.19;4867041;29;19960;-79
2023/06/01 07:04:35;;;;;;;;;;;;;;;16.50;48.93;98764.69;4869861;29;20419;-79
2023/06/01 07:07:04;;;;;;;;;;;;;;;16.60;49.30;98767.28;4868026;29;19931;-81
2023/06/01 07:09:31;;;;;;;;;;;;;;;16.60;48.12;98756.38;4875628;29;19939;-79
2023/06/01 07:11:58;;;;;;;;;;;;;;;16.64;47.07;98762.09;4871313;29;20350;-80
2023/06/01 07:14:26;;;;;;;;;;;;;;;16.55;48.13;98758.38;4859069;29;20026;-80
2023/06/01 07:16:53;;;;;;;;;;;;;;;16.66;47.50;98748.97;4860548;29;19935;-80
2023/06/01 07:19:32;;;;;;;;;;;;;;;16.73;47.90;98746.69;4860117;29;19928;-81
2023/06/01 07:22:00;;;;;;;;;;;;;;;16.76;46.14;98751.59;4843516;29;19936;-80
2023/06/01 07:24:27;;;;;;;;;;;;;;;16.81;46.61;98743.38;4859838;29;19934;-80
2023/06/01 07:29:44;;;;;;;;;;;;;;;17.05;46.70;98747.97;4859802;29;19976;-80
2023/06/01 07:32:12;;;;;;;;;;;;;;;17.18;45.83;98740.97;4858686;29;19935;-80
2023/06/01 07:34:39;;;;;;;;;;;;;;;17.30;45.63;98731.25;4857959;29;19939;-80
2023/06/01 07:37:08;;;;;;;;;;;;;;;17.38;44.95;98728.97;4858903;29;20296;-79
2023/06/01 07:39:44;;;;;;;;;;;;;;;17.46;44.91;98731.03;4859393;29;20300;-80
2023/06/01 07:42:25;;;;;;;;;;;;;;;17.61;44.97;98724.53;4859876;29;19935;-80
2023/06/01 07:44:52;;;;;;;;;;;;;;;17.77;44.39;98713.06;4862012;29;19928;-80
2023/06/01 07:47:21;;;;;;;;;;;;;;;17.91;43.65;98725.97;4878263;29;20534;-79
2023/06/01 07:49:49;;;;;;;;;;;;;;;17.94;43.84;98717.97;4878172;29;20458;-80
2023/06/01 07:52:17;;;;;;;;;;;;;;;18.22;43.33;98728.16;4877254;29;20454;-80
2023/06/01 07:54:44;;;;;;;;;;;;;;;18.15;42.03;98742.19;4876870;29;19934;-80
2023/06/01 07:57:12;;;;;;;;;;;;;;;17.99;41.30;98719.81;4876738;29;19955;-80
2023/06/01 07:59:41;;;;;;;;;;;;;;;18.09;41.66;98736.00;4876539;29;20033;-79
2023/06/01 08:02:10;;;;;;;;;;;;;;;18.30;40.31;98732.91;4861089;29;19983;-80
2023/06/01 08:04:38;;;;;;;;;;;;;;;18.33;41.41;98718.63;4859143;29;19982;-80
2023/06/01 08:07:07;;;;;;;;;;;;;;;18.45;40.06;98726.34;4859362;29;19928;-80
2023/06/01 08:09:35;;;;;;;;;;;;;;;18.57;40.57;98704.78;4858958;29;20524;-81
2023/06/01 08:12:02;;;;;;;;;;;;;;;18.91;39.88;98703.56;4871811;29;19931;-81
2023/06/01 08:14:33;;;;;;;;;;;;;;;18.88;40.04;98702.25;4877940;29;19931;-81
2023/06/01 08:17:06;;;;;;;;;;;;;;;19.14;39.66;98713.44;4876445;29;19934;-80
2023/06/01 08:19:35;;;;;;;;;;;;;;;19.00;39.03;98713.47;4876425;29;19938;-80
2023/06/01 08:22:05;;;;;;;;;;;;;;;18.98;38.77;98712.97;4877827;29;19934;-80
2023/06/01 08:24:35;;;;;;;;;;;;;;;19.12;39.74;98710.22;4877428;29;20030;-80
2023/06/01 08:27:18;;;;;;;;;;;;;;;19.33;39.74;98709.75;4876489;29;20027;-80
2023/06/01 08:29:54;;;;;;;;;;;;;;;19.34;39.01;98703.13;4876414;29;19953;-80
2023/06/01 08:32:21;;;;;;;;;;;;;;;19.52;39.07;98701.34;4877274;29;19999;-81
2023/06/01 08:34:49;;;;;;;;;;;;;;;19.95;38.31;98687.16;4875810;29;20376;-80
2023/06/01 08:37:16;;;;;;;;;;;;;;;20.24;38.23;98705.84;4877035;29;19927;-80
2023/06/01 08:39:52;;;;;;;;;;;;;;;20.28;37.52;98691.19;4875760;29;19934;-80
2023/06/01 08:42:33;;;;;;;;;;;;;;;20.29;36.15;98689.25;4875529;29;19955;-81
2023/06/01 08:45:02;;;;;;;;;;;;;;;20.74;36.04;98681.69;4875808;29;19931;-81
2023/06/01 08:47:28;;;;;;;;;;;;;;;20.58;35.11;98682.44;4875458;29;20419;-80
2023/06/01 08:49:56;;;;;;;;;;;;;;;20.78;35.92;98684.59;4877101;29;19934;-81
2023/06/01 08:52:24;;;;;;;;;;;;;;;20.51;35.08;98677.41;4875195;29;19976;-81
2023/06/01 08:54:50;;;;;;;;;;;;;;;19.95;35.66;98676.19;4875952;29;19970;-80
2023/06/01 08:57:20;;;;;;;;;;;;;;;19.80;36.31;98680.13;4861337;29;19928;-81
2023/06/01 08:59:47;;;;;;;;;;;;;;;19.89;36.65;98706.44;4880128;29;19934;-81
2023/06/01 09:02:21;;;;;;;;;;;;;;;20.48;35.70;98676.09;4878024;29;19928;-80
2023/06/01 09:04:50;;;;;;;;;;;;;;;20.97;34.90;98668.66;4877169;29;19928;-80
2023/06/01 09:07:34;;;;;;;;;;;;;;;21.15;34.66;98674.16;4873590;29;19959;-80
2023/06/01 09:10:01;;;;;;;;;;;;;;;20.92;34.36;98670.75;4859613;29;19935;-79
2023/06/01 09:12:30;;;;;;;;;;;;;;;21.10;33.89;98658.66;4872065;29;20034;-81
2023/06/01 09:15:06;;;;;;;;;;;;;;;21.42;32.15;98673.88;4877034;29;19928;-79
2023/06/01 09:17:40;;;;;;;;;;;;;;;21.66;33.28;98656.06;4870986;29;19931;-80
2023/06/01 09:20:11;;;;;;;;;;;;;;;21.56;32.84;98662.69;4860940;29;19928;-80
2023/06/01 09:22:42;;;;;;;;;;;;;;;21.50;33.04;98663.19;4529090;29;10000430;-80
2023/06/01 09:25:12;;;;;;;;;;;;;;;21.86;32.54;98660.06;4871432;29;19988;-80
2023/06/01 09:27:47;;;;;;;;;;;;;;;22.06;31.44;98664.84;4872751;29;20014;-79
2023/06/01 09:30:17;;;;;;;;;;;;;;;22.07;31.85;98662.88;4856531;29;20390;-79
2023/06/01 09:32:50;;;;;;;;;;;;;;;22.36;32.47;98673.16;4871642;29;19938;-79
2023/06/01 09:35:39;;;;;;;;;;;;;;;22.53;32.44;98657.69;4873154;29;19934;-80
2023/06/01 09:38:11;;;;;;;;;;;;;;;22.99;31.57;98658.72;4873490;29;19939;-80
2023/06/01 09:40:38;;;;;;;;;;;;;;;22.79;30.36;98658.34;4872564;29;19927;-80
2023/06/01 09:43:20;;;;;;;;;;;;;;;22.81;30.28;98667.06;4872712;29;19927;-80
2023/06/01 09:46:08;;;;;;;;;;;;;;;23.11;29.92;98664.28;4873472;29;20058;-79
2023/06/01 09:48:35;;;;;;;;;;;;;;;23.24;29.53;98700.94;4865212;29;19987;-80
2023/06/01 09:51:02;;;;;;;;;;;;;;;23.06;29.92;98651.53;4870888;29;19932;-79
2023/06/01 09:53:39;;;;;;;;;;;;;;;23.38;29.06;98645.63;4873774;29;19931;-80
2023/06/01 09:56:12;;;;;;;;;;;;;;;23.59;28.27;98652.69;4876523;29;19927;-79
2023/06/01 09:58:40;;;;;;;;;;;;;;;23.43;28.97;98642.66;4875589;29;19928;-80
2023/06/01 10:01:08;;;;;;;;;;;;;;;23.66;27.63;98654.91;4877360;29;20033;-79
2023/06/01 10:03:41;;;;;;;;;;;;;;;22.92;28.54;98639.97;4878493;29;19928;-80
2023/06/01 10:06:11;;;;;;;;;;;;;;;23.83;27.88;98650.38;4874529;29;19928;-80
2023/06/01 10:08:38;;;;;;;;;;;;;;;23.84;27.33;98644.53;4877107;29;19934;-79
2023/06/01 10:11:06;;;;;;;;;;;;;;;24.15;28.37;98657.75;4862664;29;19983;-82
2023/06/01 10:13:35;;;;;;;;;;;;;;;24.68;27.82;98644.13;4874103;29;19975;-80
2023/06/01 10:16:03;;;;;;;;;;;;;;;25.30;27.08;98656.66;4879917;29;20391;-79
2023/06/01 10:18:31;;;;;;;;;;;;;;;25.39;26.41;98653.72;4878511;29;19931;-79
2023/06/01 10:20:58;;;;;;;;;;;;;;;25.29;25.47;98665.28;4831394;29;19928;-79
2023/06/01 10:23:26;;;;;;;;;;;;;;;25.06;26.18;98645.66;4879654;29;19928;-79
2023/06/01 10:26:00;;;;;;;;;;;;;;;25.37;25.34;98642.25;4874870;29;20000;-79
2023/06/01 10:28:29;;;;;;;;;;;;;;;25.17;25.88;98643.22;4873616;29;19951;-80
2023/06/01 10:31:14;;;;;;;;;;;;;;;25.38;24.78;98645.81;4863392;29;19967;-79
2023/06/01 10:33:54;;;;;;;;;;;;;;;25.04;25.62;98645.19;4860050;29;20299;-81
2023/06/01 10:36:21;;;;;;;;;;;;;;;25.40;25.21;98660.09;4872940;29;19988;-79
2023/06/01 10:38:48;;;;;;;;;;;;;;;25.76;25.33;98634.22;4869966;29;20414;-81
2023/06/01 10:41:25;;;;;;;;;;;;;;;26.70;24.26;98621.56;4875044;29;19934;-82
2023/06/01 10:43:52;;;;;;;;;;;;;;;26.71;23.13;98644.50;4867999;29;19928;-80
2023/06/01 10:46:35;;;;;;;;;;;;;;;26.35;23.63;98638.88;4868605;29;20380;-81
2023/06/01 10:49:08;;;;;;;;;;;;;;;26.10;24.40;98627.22;4877887;29;20387;-81
2023/06/01 10:51:37;;;;;;;;;;;;;;;26.06;24.42;98631.06;4877353;29;19927;-81
2023/06/01 10:54:23;;;;;;;;;;;;;;;25.39;24.91;98628.88;4878427;29;19934;-80
2023/06/01 10:57:10;;;;;;;;;;;;;;;25.14;24.40;98633.66;4878286;29;19934;-81
2023/06/01 10:59:37;;;;;;;;;;;;;;;24.90;25.13;98629.03;4879012;29;19983;-82
2023/06/01 11:02:04;;;;;;;;;;;;;;;25.86;24.52;98652.28;4878054;29;19931;-81
2023/06/01 11:04:37;;;;;;;;;;;;;;;26.15;24.04;98620.63;4878463;29;19973;-82
2023/06/01 11:07:30;;;;;;;;;;;;;;;26.97;23.17;98635.59;4875842;29;19927;-81
2023/06/01 11:09:57;;;;;;;;;;;;;;;27.17;22.40;98634.44;4875114;29;20447;-81
2023/06/01 11:12:25;;;;;;;;;;;;;;;26.85;23.68;98622.66;4879053;29;19954;-82
2023/06/01 11:15:11;;;;;;;;;;;;;;;26.55;23.82;98642.56;4878676;29;19963;-81
2023/06/01 11:17:39;;;;;;;;;;;;;;;26.15;24.07;98631.69;4872997;29;20332;-81
2023/06/01 11:20:10;;;;;;;;;;;;;;;26.04;24.55;98633.38;4874056;29;19988;-81
2023/06/01 11:22:38;;;;;;;;;;;;;;;26.35;23.88;98627.81;4859000;29;19976;-81
2023/06/01 11:25:08;;;;;;;;;;;;;;;26.07;23.93;98621.59;4859196;29;20355;-81
2023/06/01 11:27:36;;;;;;;;;;;;;;;25.86;24.38;98657.81;4869778;29;19928;-81
2023/06/01 11:30:03;;;;;;;;;;;;;;;25.96;24.53;98642.66;4848098;29;19928;-81
2023/06/01 11:32:30;;;;;;;;;;;;;;;26.67;24.01;98616.75;4870088;29;19939;-80
2023/06/01 11:34:59;;;;;;;;;;;;;;;27.30;22.92;98639.88;4860052;29;20014;-81
2023/06/01 11:37:28;;;;;;;;;;;;;;;27.51;22.61;98631.16;4875453;29;20358;-81
2023/06/01 11:40:04;;;;;;;;;;;;;;;27.29;23.56;98616.09;4878455;29;19971;-81
2023/06/01 11:42:34;;;;;;;;;;;;;;;28.32;22.82;98606.06;4874257;29;19932;-81
2023/06/01 11:45:01;;;;;;;;;;;;;;;27.46;22.84;98607.31;4872225;29;19928;-81
2023/06/01 11:47:31;;;;;;;;;;;;;;;26.61;24.63;98620.16;4862287;29;20062;-81
2023/06/01 11:49:59;;;;;;;;;;;;;;;26.26;24.20;98605.09;4876236;29;19983;-80
2023/06/01 11:52:26;;;;;;;;;;;;;;;25.70;25.20;98614.34;4866057;29;20031;-81
2023/06/01 11:55:01;;;;;;;;;;;;;;;27.05;24.43;98609.66;4876998;29;19959;-80
2023/06/01 11:57:29;;;;;;;;;;;;;;;28.12;24.10;98610.09;4876285;29;20391;-82
2023/06/01 11:59:56;;;;;;;;;;;;;;;29.09;21.60;98612.34;4878114;29;19935;-81
2023/06/01 12:02:25;;;;;;;;;;;;;;;28.38;22.16;98610.09;4874677;29;19931;-80
2023/06/01 12:05:08;;;;;;;;;;;;;;;28.33;22.73;98637.38;4877361;29;19928;-81
2023/06/01 12:07:48;;;;;;;;;;;;;;;28.10;23.50;98604.91;4877156;29;19934;-81
2023/06/01 12:10:16;;;;;;;;;;;;;;;28.76;23.05;98611.09;4878322;29;19928;-81
2023/06/01 12:12:46;;;;;;;;;;;;;;;27.17;23.55;98603.97;4876693;29;20410;-81
2023/06/01 12:15:17;;;;;;;;;;;;;;;25.17;25.21;98623.91;4875542;29;19927;-82
2023/06/01 12:17:49;;;;;;;;;;;;;;;26.35;24.50;98605.69;4876262;29;20012;-80
2023/06/01 12:20:31;;;;;;;;;;;;;;;27.52;23.05;98599.50;4870632;29;19955;-82
2023/06/01 12:22:59;;;;;;;;;;;;;;;28.39;22.26;98599.84;4873637;29;19928;-81
2023/06/01 12:25:26;;;;;;;;;;;;;;;26.31;24.30;98607.59;4863786;29;20391;-81
2023/06/01 12:28:03;;;;;;;;;;;;;;;24.96;26.12;98599.22;4867060;29;19935;-79
2023/06/01 12:30:30;;;;;;;;;;;;;;;24.22;27.33;98602.88;4867481;29;19934;-80
2023/06/01 12:32:57;;;;;;;;;;;;;;;26.76;25.04;98609.06;4875856;29;19928;-81
2023/06/01 12:35:24;;;;;;;;;;;;;;;28.04;23.74;98598.88;4867102;29;19935;-82
2023/06/01 12:38:09;;;;;;;;;;;;;;;27.18;24.72;98594.50;4877671;29;19927;-81
2023/06/01 12:40:38;;;;;;;;;;;;;;;24.92;26.46;98637.75;4871775;29;19975;-81
2023/06/01 12:43:20;;;;;;;;;;;;;;;24.12;27.23;98611.59;4857206;29;19940;-82
2023/06/01 12:45:47;;;;;;;;;;;;;;;25.02;26.72;98606.91;4867445;29;19928;-80
2023/06/01 12:48:31;;;;;;;;;;;;;;;25.44;26.66;98597.44;4873673;29;20280;-82
2023/06/01 12:51:04;;;;;;;;;;;;;;;24.99;27.16;98602.09;4869085;29;19979;-80
2023/06/01 12:53:31;;;;;;;;;;;;;;;25.57;26.74;98587.91;4870897;29;20066;-81
2023/06/01 12:55:58;;;;;;;;;;;;;;;27.69;24.57;98587.94;4870247;29;19927;-82
2023/06/01 12:58:27;;;;;;;;;;;;;;;28.63;22.97;98618.03;4876611;29;19969;-81
2023/06/01 13:00:55;;;;;;;;;;;;;;;27.41;24.56;98596.53;4877392;29;19950;-81
2023/06/01 13:03:24;;;;;;;;;;;;;;;27.98;23.45;98588.47;4873276;29;21970;-82
2023/06/01 13:05:51;;;;;;;;;;;;;;;28.26;23.10;98604.78;4864522;29;19972;-81
2023/06/01 13:08:18;;;;;;;;;;;;;;;27.43;24.14;98585.91;4876874;29;20402;-82